Praia, Cape Verde
Current Conditions -  °F | °C
As of 11:00 PM on Sunday 23 Nov 2014 (Local Time) from GVNP Reporting Station
Broken Clouds Broken Clouds  
Wind Chill: 24°   Ceiling: 2300
Heat Index: 24°   Visibility: 6mi
Dew Point: 20°   Wind: 14mph
Humidity: 78%   Direction: 80°E
Pressure: 30.03"   Gusts: NA
Location:  14.93°N, 23.54°W
Report Text: GVNP 240000Z 08012KT 9999 FEW015 BKN023 24/20 Q1017 NOSIG
Loading
Personal Weather Stations






























Interactive Weather Map New forecast layout! Learn more

10-Day Weather Forecast

Advertisements
Track Severe Weather on mobile